createdAt,value
2018-10-21T00:02:23.023Z,6.30
2018-10-21T00:04:51.506Z,6.30
2018-10-21T00:07:20.021Z,6.30
2018-10-21T00:09:48.449Z,6.30
2018-10-21T00:12:16.922Z,6.30
2018-10-21T00:14:45.411Z,6.30
2018-10-21T00:17:13.875Z,6.30
2018-10-21T00:19:42.298Z,6.20
2018-10-21T00:22:10.742Z,6.20
2018-10-21T00:24:39.190Z,6.20
2018-10-21T00:27:07.736Z,6.10
2018-10-21T00:29:36.101Z,6.00
2018-10-21T00:32:04.642Z,6.00
2018-10-21T00:34:33.069Z,5.90
2018-10-21T00:37:01.527Z,5.90
2018-10-21T00:39:29.985Z,5.90
2018-10-21T00:41:58.407Z,5.80
2018-10-21T00:44:26.815Z,5.80
2018-10-21T00:46:55.285Z,5.80
2018-10-21T00:49:23.706Z,5.80
2018-10-21T00:51:52.167Z,5.80
2018-10-21T00:54:20.599Z,5.80
2018-10-21T00:56:49.039Z,5.80
2018-10-21T00:59:17.524Z,5.80
2018-10-21T01:01:45.977Z,5.80
2018-10-21T01:04:14.566Z,5.70
2018-10-21T01:06:42.911Z,5.60
2018-10-21T01:09:12.918Z,5.60
2018-10-21T01:11:42.338Z,5.60
2018-10-21T01:14:11.153Z,5.50
2018-10-21T01:16:39.573Z,5.50
2018-10-21T01:19:08.088Z,5.50
2018-10-21T01:21:37.083Z,5.40
2018-10-21T01:24:06.051Z,5.40
2018-10-21T01:26:34.518Z,5.40
2018-10-21T01:29:03.064Z,5.40
2018-10-21T01:31:31.506Z,5.40
2018-10-21T01:33:59.966Z,5.40
2018-10-21T01:36:28.541Z,5.50
2018-10-21T01:38:56.903Z,5.50
2018-10-21T01:41:25.357Z,5.50
2018-10-21T01:43:53.821Z,5.50
2018-10-21T01:46:22.281Z,5.50
2018-10-21T01:48:50.738Z,5.50
2018-10-21T01:51:19.205Z,5.50
2018-10-21T01:53:47.658Z,5.50
2018-10-21T01:56:16.108Z,5.50
2018-10-21T01:58:44.625Z,5.50
2018-10-21T02:01:13.073Z,5.50
2018-10-21T02:03:41.613Z,5.50
2018-10-21T02:06:10.060Z,5.50
2018-10-21T02:08:38.542Z,5.50
2018-10-21T02:11:06.997Z,5.50
2018-10-21T02:13:35.513Z,5.50
2018-10-21T02:16:03.950Z,5.50
2018-10-21T02:18:32.575Z,5.50
2018-10-21T02:21:01.002Z,5.50
2018-10-21T02:23:29.449Z,5.40
2018-10-21T02:25:57.931Z,5.40
2018-10-21T02:28:26.448Z,5.40
2018-10-21T02:30:54.922Z,5.40
2018-10-21T02:33:23.448Z,5.30
2018-10-21T02:35:51.863Z,5.30
2018-10-21T02:38:20.317Z,5.30
2018-10-21T02:41:27.218Z,5.30
2018-10-21T02:43:55.698Z,5.20
2018-10-21T02:46:24.854Z,5.20
2018-10-21T02:48:54.399Z,5.10
2018-10-21T02:51:22.925Z,5.10
2018-10-21T02:53:51.424Z,5.10
2018-10-21T02:56:19.900Z,5.00
2018-10-21T02:58:48.394Z,5.00
2018-10-21T03:01:16.925Z,4.90
2018-10-21T03:03:45.446Z,5.00
2018-10-21T03:06:13.933Z,5.00
2018-10-21T03:08:42.439Z,4.90
2018-10-21T03:11:11.028Z,4.80
2018-10-21T03:13:39.528Z,4.80
2018-10-21T03:16:08.044Z,4.80
2018-10-21T03:18:36.607Z,4.80
2018-10-21T03:21:05.440Z,4.80
2018-10-21T03:23:34.426Z,4.70
2018-10-21T03:26:03.032Z,4.70
2018-10-21T03:28:32.009Z,4.60
2018-10-21T03:31:00.744Z,4.60
2018-10-21T03:33:29.351Z,4.50
2018-10-21T03:35:57.830Z,4.40
2018-10-21T03:38:26.333Z,4.40
2018-10-21T03:40:54.876Z,4.40
2018-10-21T03:43:23.403Z,4.40
2018-10-21T03:45:52.002Z,4.40
2018-10-21T03:48:20.569Z,4.30
2018-10-21T03:50:49.125Z,4.30
2018-10-21T03:53:17.667Z,4.30
2018-10-21T03:55:46.225Z,4.30
2018-10-21T03:58:14.861Z,4.40
2018-10-21T04:00:43.374Z,4.30
2018-10-21T04:03:11.927Z,4.30
2018-10-21T04:05:40.548Z,4.20
2018-10-21T04:08:09.051Z,4.10
2018-10-21T04:10:37.619Z,4.10
2018-10-21T04:13:06.298Z,4.00
2018-10-21T04:15:34.913Z,4.00
2018-10-21T04:18:03.455Z,4.00
2018-10-21T04:20:31.996Z,4.00
2018-10-21T04:23:01.566Z,4.00
2018-10-21T04:25:31.428Z,4.00
2018-10-21T04:28:00.939Z,4.00
2018-10-21T04:30:30.832Z,4.00
2018-10-21T04:33:08.034Z,4.00
2018-10-21T04:35:36.740Z,4.00
2018-10-21T04:38:32.761Z,4.00
2018-10-21T04:41:01.274Z,4.00
2018-10-21T04:43:29.810Z,4.00
2018-10-21T04:45:58.414Z,4.00
2018-10-21T04:48:26.944Z,4.00
2018-10-21T04:50:55.465Z,4.00
2018-10-21T04:53:23.984Z,3.90
2018-10-21T04:55:52.526Z,4.00
2018-10-21T04:58:21.057Z,3.90
2018-10-21T05:00:49.599Z,3.90
2018-10-21T05:03:18.137Z,3.90
2018-10-21T05:05:46.689Z,3.90
2018-10-21T05:08:15.255Z,3.90
2018-10-21T05:10:43.801Z,3.90
2018-10-21T05:13:12.337Z,3.90
2018-10-21T05:15:40.934Z,3.90
2018-10-21T05:18:09.436Z,3.90
2018-10-21T05:20:37.955Z,3.90
2018-10-21T05:23:06.499Z,3.90
2018-10-21T05:25:34.982Z,3.90
2018-10-21T05:28:03.541Z,3.80
2018-10-21T05:30:32.087Z,3.80
2018-10-21T05:33:00.645Z,3.80
2018-10-21T05:35:29.215Z,3.80
2018-10-21T05:37:57.804Z,3.80
2018-10-21T05:40:26.306Z,3.70
2018-10-21T05:42:54.832Z,3.70
2018-10-21T05:45:23.373Z,3.70
2018-10-21T05:47:51.895Z,3.70
2018-10-21T05:50:20.458Z,3.60
2018-10-21T05:52:49.036Z,3.60
2018-10-21T05:55:17.561Z,3.60
2018-10-21T05:57:46.118Z,3.60
2018-10-21T06:00:16.320Z,3.50
2018-10-21T06:02:44.914Z,3.40
2018-10-21T06:05:39.334Z,3.40
2018-10-21T06:08:08.290Z,3.40
2018-10-21T06:10:36.795Z,3.40
2018-10-21T06:13:05.795Z,3.50
2018-10-21T06:15:34.313Z,3.60
2018-10-21T06:18:03.612Z,3.60
2018-10-21T06:20:36.063Z,3.60
2018-10-21T06:23:04.815Z,3.60
2018-10-21T06:25:33.322Z,3.70
2018-10-21T06:28:01.870Z,3.70
2018-10-21T06:30:30.402Z,3.70
2018-10-21T06:32:58.989Z,3.70
2018-10-21T06:35:27.455Z,3.70
2018-10-21T06:37:55.985Z,3.70
2018-10-21T06:40:24.482Z,3.70
2018-10-21T06:42:52.983Z,3.70
2018-10-21T06:45:21.598Z,3.80
2018-10-21T06:47:50.043Z,3.80
2018-10-21T06:50:20.308Z,3.90
2018-10-21T06:52:49.256Z,3.90
2018-10-21T06:55:17.814Z,3.90
2018-10-21T06:57:46.715Z,4.00
2018-10-21T07:00:15.218Z,4.20
2018-10-21T07:02:43.734Z,4.30
2018-10-21T07:05:24.016Z,4.50
2018-10-21T07:07:52.706Z,4.70
2018-10-21T07:10:21.722Z,4.90
2018-10-21T07:12:50.591Z,5.00
2018-10-21T07:15:19.564Z,5.10
2018-10-21T07:17:48.026Z,5.00
2018-10-21T07:20:16.545Z,5.00
2018-10-21T07:22:45.431Z,5.20
2018-10-21T07:25:13.904Z,5.40
2018-10-21T07:27:42.410Z,5.70
2018-10-21T07:30:12.292Z,5.80
2018-10-21T07:32:41.457Z,6.00
2018-10-21T07:35:12.110Z,6.20
2018-10-21T07:37:41.293Z,6.40
2018-10-21T07:40:10.495Z,6.60
2018-10-21T07:42:38.922Z,6.90
2018-10-21T07:45:07.434Z,7.10
2018-10-21T07:47:35.934Z,7.20
2018-10-21T07:50:04.431Z,7.40
2018-10-21T07:52:32.922Z,7.30
2018-10-21T07:55:01.409Z,7.30
2018-10-21T07:57:29.908Z,7.60
2018-10-21T07:59:58.377Z,8.00
2018-10-21T08:02:26.837Z,8.10
2018-10-21T08:04:55.341Z,8.40
2018-10-21T08:07:35.145Z,8.70
2018-10-21T08:10:03.646Z,9.00
2018-10-21T08:12:32.432Z,9.10
2018-10-21T08:15:00.997Z,9.20
2018-10-21T08:17:29.391Z,9.80
2018-10-21T08:19:59.025Z,10.30
2018-10-21T08:22:27.502Z,10.70
2018-10-21T08:24:55.959Z,11.20
2018-10-21T08:27:24.447Z,11.80
2018-10-21T08:29:52.854Z,12.10
2018-10-21T08:32:21.304Z,12.20
2018-10-21T08:34:49.777Z,12.80
2018-10-21T08:37:18.213Z,13.30
2018-10-21T08:39:46.797Z,13.80
2018-10-21T08:42:15.234Z,14.10
2018-10-21T08:44:43.706Z,14.50
2018-10-21T08:47:12.150Z,14.60
2018-10-21T08:49:40.607Z,15.10
2018-10-21T08:52:09.038Z,15.60
2018-10-21T08:54:37.521Z,15.70
2018-10-21T08:57:06.493Z,16.10
2018-10-21T08:59:34.937Z,16.40
2018-10-21T09:02:03.454Z,16.60
2018-10-21T09:04:31.825Z,16.90
2018-10-21T09:07:00.283Z,17.10
2018-10-21T09:09:28.721Z,16.80
2018-10-21T09:11:57.149Z,16.90
2018-10-21T09:14:25.574Z,17.20
2018-10-21T09:16:54.037Z,17.60
2018-10-21T09:19:22.474Z,16.60
2018-10-21T09:21:50.934Z,16.80
2018-10-21T09:24:19.391Z,16.70
2018-10-21T09:26:47.892Z,17.30
2018-10-21T09:29:16.329Z,17.70
2018-10-21T09:31:44.749Z,18.30
2018-10-21T09:34:13.261Z,18.90
2018-10-21T09:36:41.581Z,19.20
2018-10-21T09:39:12.798Z,19.70
2018-10-21T09:41:41.509Z,19.50
2018-10-21T09:44:10.579Z,19.60
2018-10-21T09:46:39.599Z,20.00
2018-10-21T09:49:08.726Z,20.50
2018-10-21T09:51:37.686Z,20.70
2018-10-21T09:54:06.337Z,20.30
2018-10-21T09:56:34.930Z,20.20
2018-10-21T09:59:03.386Z,21.00
2018-10-21T10:01:37.166Z,21.80
2018-10-21T10:04:05.659Z,22.40
2018-10-21T10:06:34.095Z,20.40
2018-10-21T10:09:02.573Z,21.30
2018-10-21T10:11:31.014Z,21.80
2018-10-21T10:13:59.418Z,20.20
2018-10-21T10:16:27.841Z,20.80
2018-10-21T10:18:56.315Z,22.10
2018-10-21T10:21:24.702Z,21.50
2018-10-21T10:23:53.125Z,22.20
2018-10-21T10:26:21.539Z,23.20
2018-10-21T10:28:49.950Z,22.20
2018-10-21T10:31:18.398Z,22.90
2018-10-21T10:33:46.818Z,23.80
2018-10-21T10:36:15.279Z,24.60
2018-10-21T10:38:43.706Z,23.40
2018-10-21T10:41:12.138Z,23.10
2018-10-21T10:43:40.520Z,24.40
2018-10-21T10:46:09.855Z,25.20
2018-10-21T10:48:38.293Z,23.00
2018-10-21T10:51:07.250Z,21.80
2018-10-21T10:53:35.742Z,23.10
2018-10-21T10:56:04.163Z,22.80
2018-10-21T10:58:32.601Z,24.50
2018-10-21T11:01:01.093Z,24.10
2018-10-21T11:03:31.025Z,25.10
2018-10-21T11:05:59.677Z,23.50
2018-10-21T11:08:28.604Z,22.90
2018-10-21T11:10:57.086Z,22.70
2018-10-21T11:13:26.029Z,22.30
2018-10-21T11:15:54.707Z,23.50
2018-10-21T11:18:23.117Z,24.00
2018-10-21T11:20:51.536Z,23.30
2018-10-21T11:23:19.988Z,21.70
2018-10-21T11:25:48.394Z,21.30
2018-10-21T11:28:17.010Z,21.10
2018-10-21T11:30:45.361Z,22.20
2018-10-21T11:33:13.850Z,23.20
2018-10-21T11:35:42.276Z,23.70
2018-10-21T11:38:10.770Z,20.90
2018-10-21T11:40:39.189Z,19.30
2018-10-21T11:43:07.691Z,21.10
2018-10-21T11:45:36.170Z,22.20
2018-10-21T11:48:04.654Z,22.00
2018-10-21T11:50:33.122Z,22.50
2018-10-21T11:53:01.600Z,20.90
2018-10-21T11:55:35.178Z,21.50
2018-10-21T11:58:03.747Z,22.80
2018-10-21T12:00:32.246Z,22.70
2018-10-21T12:03:00.846Z,21.20
2018-10-21T12:05:29.264Z,19.80
2018-10-21T12:07:58.048Z,21.50
2018-10-21T12:10:26.505Z,21.90
2018-10-21T12:12:55.340Z,21.30
2018-10-21T12:15:23.927Z,21.30
2018-10-21T12:17:52.411Z,22.30
2018-10-21T12:20:20.870Z,22.70
2018-10-21T12:22:49.403Z,22.60
2018-10-21T12:25:17.921Z,23.40
2018-10-21T12:27:46.280Z,23.90
2018-10-21T12:30:14.686Z,24.10
2018-10-21T12:32:43.261Z,21.40
2018-10-21T12:35:12.901Z,22.50
2018-10-21T12:37:41.551Z,21.80
2018-10-21T12:40:10.671Z,22.90
2018-10-21T12:42:39.621Z,24.10
2018-10-21T12:45:09.650Z,22.80
2018-10-21T12:47:38.214Z,22.80
2018-10-21T12:50:06.875Z,22.20
2018-10-21T12:52:35.415Z,22.70
2018-10-21T12:55:04.108Z,22.20
2018-10-21T12:57:32.530Z,23.20
2018-10-21T13:00:00.945Z,23.60
2018-10-21T13:02:29.337Z,22.00
2018-10-21T13:04:57.839Z,22.50
2018-10-21T13:07:26.290Z,23.10
2018-10-21T13:09:54.733Z,22.80
2018-10-21T13:12:23.149Z,21.50
2018-10-21T13:14:51.637Z,21.00
2018-10-21T13:17:20.385Z,22.00
2018-10-21T13:19:48.924Z,20.50
2018-10-21T13:22:17.402Z,21.60
2018-10-21T13:24:45.733Z,22.40
2018-10-21T13:27:14.193Z,23.10
2018-10-21T13:29:42.639Z,23.80
2018-10-21T13:32:11.180Z,21.80
2018-10-21T13:34:39.748Z,22.10
2018-10-21T13:37:08.216Z,23.70
2018-10-21T13:39:36.621Z,23.10
2018-10-21T13:42:05.218Z,23.60
2018-10-21T13:44:33.667Z,25.30
2018-10-21T13:47:02.109Z,25.10
2018-10-21T13:49:30.618Z,23.60
2018-10-21T13:51:59.259Z,22.00
2018-10-21T13:54:27.553Z,24.30
2018-10-21T13:56:55.989Z,24.80
2018-10-21T13:59:24.425Z,22.30
2018-10-21T14:01:53.421Z,24.50
2018-10-21T14:04:21.862Z,26.10
2018-10-21T14:06:50.338Z,26.70
2018-10-21T14:09:18.791Z,27.50
2018-10-21T14:11:47.222Z,26.50
2018-10-21T14:14:15.672Z,26.70
2018-10-21T14:16:44.210Z,26.40
2018-10-21T14:19:12.642Z,26.80
2018-10-21T14:21:41.140Z,26.00
2018-10-21T14:24:09.639Z,21.20
2018-10-21T14:26:38.069Z,19.30
2018-10-21T14:29:06.501Z,19.00
2018-10-21T14:31:34.953Z,19.00
2018-10-21T14:34:03.386Z,18.10
2018-10-21T14:36:31.824Z,17.80
2018-10-21T14:39:00.295Z,17.80
2018-10-21T14:41:28.710Z,17.30
2018-10-21T14:43:57.143Z,17.20
2018-10-21T14:46:25.590Z,16.90
2018-10-21T14:48:54.005Z,16.80
2018-10-21T14:51:22.438Z,16.70
2018-10-21T14:53:50.850Z,16.60
2018-10-21T14:56:19.426Z,16.30
2018-10-21T14:58:47.723Z,16.30
2018-10-21T15:01:16.163Z,16.20
2018-10-21T15:03:44.573Z,16.10
2018-10-21T15:06:13.039Z,16.00
2018-10-21T15:08:41.436Z,16.00
2018-10-21T15:11:09.871Z,16.00
2018-10-21T15:13:38.304Z,15.90
2018-10-21T15:16:06.807Z,15.80
2018-10-21T15:18:35.218Z,15.80
2018-10-21T15:21:03.669Z,15.70
2018-10-21T15:23:32.078Z,15.60
2018-10-21T15:26:00.513Z,15.50
2018-10-21T15:28:28.958Z,15.40
2018-10-21T15:30:57.366Z,15.30
2018-10-21T15:33:25.761Z,15.20
2018-10-21T15:35:54.168Z,15.10
2018-10-21T15:38:22.565Z,15.00
2018-10-21T15:40:50.982Z,14.90
2018-10-21T15:43:19.382Z,14.90
2018-10-21T15:45:47.838Z,14.80
2018-10-21T15:48:16.209Z,14.80
2018-10-21T15:50:44.712Z,14.70
2018-10-21T15:53:13.042Z,14.60
2018-10-21T15:55:41.601Z,14.60
2018-10-21T15:58:10.069Z,14.50
2018-10-21T16:00:38.436Z,14.50
2018-10-21T16:03:06.920Z,14.40
2018-10-21T16:05:35.322Z,14.30
2018-10-21T16:08:03.818Z,14.20
2018-10-21T16:10:32.234Z,14.00
2018-10-21T16:13:00.713Z,13.70
2018-10-21T16:15:29.175Z,13.50
2018-10-21T16:17:57.613Z,13.20
2018-10-21T16:20:26.008Z,13.10
2018-10-21T16:22:54.433Z,12.90
2018-10-21T16:25:22.922Z,12.80
2018-10-21T16:27:51.357Z,12.70
2018-10-21T16:30:19.767Z,12.50
2018-10-21T16:32:48.274Z,12.50
2018-10-21T16:35:16.624Z,12.40
2018-10-21T16:37:45.118Z,12.30
2018-10-21T16:40:14.641Z,12.10
2018-10-21T16:42:43.095Z,12.00
2018-10-21T16:45:12.437Z,11.90
2018-10-21T16:47:41.029Z,11.80
2018-10-21T16:50:12.318Z,11.80
2018-10-21T16:52:41.377Z,11.70
2018-10-21T16:55:10.548Z,11.60
2018-10-21T16:57:39.080Z,11.60
2018-10-21T17:00:10.635Z,11.40
2018-10-21T17:02:38.975Z,11.20
2018-10-21T17:05:07.435Z,11.10
2018-10-21T17:07:35.921Z,11.00
2018-10-21T17:10:04.686Z,10.80
2018-10-21T17:12:32.915Z,10.70
2018-10-21T17:15:01.494Z,10.60
2018-10-21T17:17:29.930Z,10.50
2018-10-21T17:19:58.421Z,10.50
2018-10-21T17:22:26.846Z,10.50
2018-10-21T17:24:55.283Z,10.50
2018-10-21T17:27:23.857Z,10.40
2018-10-21T17:29:52.325Z,10.20
2018-10-21T17:32:20.732Z,10.20
2018-10-21T17:34:49.174Z,10.20
2018-10-21T17:37:17.782Z,10.20
2018-10-21T17:39:46.050Z,10.00
2018-10-21T17:42:14.465Z,9.90
2018-10-21T17:44:42.922Z,9.80
2018-10-21T17:47:11.334Z,9.80
2018-10-21T17:49:39.768Z,9.80
2018-10-21T17:52:08.267Z,9.70
2018-10-21T17:54:36.689Z,9.60
2018-10-21T17:57:05.133Z,9.50
2018-10-21T17:59:33.562Z,9.60
2018-10-21T18:02:01.985Z,9.60
2018-10-21T18:04:30.450Z,9.70
2018-10-21T18:06:58.924Z,9.60
2018-10-21T18:09:27.369Z,9.60
2018-10-21T18:11:55.809Z,9.50
2018-10-21T18:14:24.259Z,9.50
2018-10-21T18:16:52.661Z,9.30
2018-10-21T18:19:21.090Z,9.30
2018-10-21T18:21:49.513Z,9.30
2018-10-21T18:24:18.013Z,9.20
2018-10-21T18:26:46.417Z,9.10
2018-10-21T18:29:15.170Z,9.10
2018-10-21T18:31:43.593Z,9.10
2018-10-21T18:34:12.085Z,9.00
2018-10-21T18:36:40.458Z,9.10
2018-10-21T18:39:10.021Z,9.00
2018-10-21T18:41:38.437Z,8.90
2018-10-21T18:44:07.397Z,8.90
2018-10-21T18:46:35.824Z,8.80
2018-10-21T18:49:04.350Z,8.80
2018-10-21T18:51:32.716Z,8.80
2018-10-21T18:54:01.133Z,8.90
2018-10-21T18:56:29.606Z,8.80
2018-10-21T18:58:58.010Z,8.80
2018-10-21T19:01:26.474Z,8.70
2018-10-21T19:03:54.977Z,8.60
2018-10-21T19:06:23.421Z,8.60
2018-10-21T19:08:51.862Z,8.60
2018-10-21T19:11:21.391Z,8.60
2018-10-21T19:13:49.775Z,8.50
2018-10-21T19:16:18.242Z,8.50
2018-10-21T19:18:46.616Z,8.40
2018-10-21T19:21:15.065Z,8.40
2018-10-21T19:23:44.114Z,8.30
2018-10-21T19:26:12.542Z,8.30
2018-10-21T19:28:40.973Z,8.20
2018-10-21T19:31:09.426Z,8.20
2018-10-21T19:33:37.908Z,8.20
2018-10-21T19:36:06.318Z,8.20
2018-10-21T19:38:34.772Z,8.20
2018-10-21T19:41:03.233Z,8.10
2018-10-21T19:43:31.723Z,8.10
2018-10-21T19:46:00.169Z,8.10
2018-10-21T19:48:28.597Z,8.10
2018-10-21T19:50:57.066Z,8.10
2018-10-21T19:53:25.477Z,8.10
2018-10-21T19:55:53.916Z,8.10
2018-10-21T19:58:22.338Z,8.10
2018-10-21T20:00:50.773Z,8.10
2018-10-21T20:03:19.189Z,8.00
2018-10-21T20:05:47.605Z,8.00
2018-10-21T20:08:16.041Z,8.00
2018-10-21T20:10:44.456Z,7.90
2018-10-21T20:13:12.976Z,7.90
2018-10-21T20:15:41.393Z,8.00
2018-10-21T20:18:09.864Z,8.00
2018-10-21T20:20:38.289Z,7.90
2018-10-21T20:23:06.736Z,7.80
2018-10-21T20:25:35.162Z,7.70
2018-10-21T20:28:03.782Z,7.70
2018-10-21T20:30:32.301Z,7.70
2018-10-21T20:33:00.820Z,7.60
2018-10-21T20:35:29.215Z,7.60
2018-10-21T20:37:57.681Z,7.60
2018-10-21T20:40:26.128Z,7.60
2018-10-21T20:42:54.593Z,7.60
2018-10-21T20:45:23.008Z,7.60
2018-10-21T20:47:51.462Z,7.60
2018-10-21T20:50:19.879Z,7.60
2018-10-21T20:52:48.317Z,7.60
2018-10-21T20:55:16.730Z,7.60
2018-10-21T20:57:45.198Z,7.60
2018-10-21T21:00:13.688Z,7.50
2018-10-21T21:02:42.105Z,7.50
2018-10-21T21:05:10.569Z,7.50
2018-10-21T21:07:39.030Z,7.50
2018-10-21T21:10:08.207Z,7.50
2018-10-21T21:12:36.934Z,7.60
2018-10-21T21:15:06.170Z,7.50
2018-10-21T21:17:34.623Z,7.60
2018-10-21T21:20:03.106Z,7.60
2018-10-21T21:22:31.572Z,7.60
2018-10-21T21:25:00.014Z,7.60
2018-10-21T21:27:28.513Z,7.60
2018-10-21T21:29:56.957Z,7.50
2018-10-21T21:32:25.386Z,7.50
2018-10-21T21:34:53.813Z,7.40
2018-10-21T21:37:22.284Z,7.40
2018-10-21T21:39:50.742Z,7.30
2018-10-21T21:42:19.227Z,7.40
2018-10-21T21:44:47.636Z,7.40
2018-10-21T21:47:16.060Z,7.40
2018-10-21T21:49:44.542Z,7.40
2018-10-21T21:52:13.059Z,7.50
2018-10-21T21:54:41.429Z,7.60
2018-10-21T21:57:09.868Z,7.60
2018-10-21T21:59:38.329Z,7.60
2018-10-21T22:02:06.766Z,7.50
2018-10-21T22:04:35.293Z,7.50
2018-10-21T22:07:03.786Z,7.50
2018-10-21T22:09:32.280Z,7.50
2018-10-21T22:12:00.770Z,7.50
2018-10-21T22:14:29.184Z,7.60
2018-10-21T22:16:57.620Z,7.60
2018-10-21T22:19:26.085Z,7.70
2018-10-21T22:21:54.511Z,7.80
2018-10-21T22:24:22.953Z,7.80
2018-10-21T22:26:51.390Z,7.70
2018-10-21T22:29:19.857Z,7.70
2018-10-21T22:31:48.286Z,7.50
2018-10-21T22:34:16.859Z,7.40
2018-10-21T22:36:45.209Z,7.40
2018-10-21T22:39:13.637Z,7.40
2018-10-21T22:41:42.074Z,7.40
2018-10-21T22:44:10.530Z,7.50
2018-10-21T22:46:38.971Z,7.60
2018-10-21T22:49:07.412Z,7.60
2018-10-21T22:51:35.821Z,7.70
2018-10-21T22:54:04.295Z,7.70
2018-10-21T22:56:32.709Z,7.70
2018-10-21T22:59:01.155Z,7.70
2018-10-21T23:01:29.590Z,7.60
2018-10-21T23:03:58.071Z,7.60
2018-10-21T23:06:26.429Z,7.60
2018-10-21T23:08:54.856Z,7.60
2018-10-21T23:11:23.301Z,7.60
2018-10-21T23:13:51.728Z,7.50
2018-10-21T23:16:20.179Z,7.60
2018-10-21T23:18:48.622Z,7.50
2018-10-21T23:21:17.045Z,7.50
2018-10-21T23:23:45.455Z,7.50
2018-10-21T23:26:13.913Z,7.50
2018-10-21T23:28:42.371Z,7.40
2018-10-21T23:31:10.790Z,7.40
2018-10-21T23:33:39.197Z,7.40
2018-10-21T23:36:07.629Z,7.40
2018-10-21T23:38:36.063Z,7.40
2018-10-21T23:41:04.493Z,7.40
2018-10-21T23:43:32.901Z,7.40
2018-10-21T23:46:01.395Z,7.40
2018-10-21T23:48:29.751Z,7.40
2018-10-21T23:50:58.264Z,7.40
2018-10-21T23:53:26.686Z,7.40
2018-10-21T23:55:55.116Z,7.40
2018-10-21T23:58:23.538Z,7.30
